Shahid Sadooghi Airport

Airport
ICAO code: 
OIYY
IATA Code: 
AZD
Summary
ICAO Region: 
MID
Territory: 
Location: 
Yazd, Yazd Province
Serving: 
Yazd
Elevation: 
4054 ft
Coordinates: 
Aerial View: 
31° 54' 5.477" N, 54° 17' 8.117" E
Metar
Observation
OIYY 030800Z 34008KT 5000 DU NSC 39/02 Q1004
Station
Yazd
Date/Time
2022-07-03 08:00:00
Wind direction
340°
Wind speed
08 kts
Lowest cloud amount
nil significant cloud
Temperature
39°C
Dew point
2°C
Humidity
10%
QNH
1004 hPa
Weather condition
n/a

Airport located 8km west of the city of Yazd, Iran.

Climatology

Warm Desert climate (Köppen climate classification BWh). Very hot summers and cold winter nights; very little precipitation.

Runways

Designator Length Width Surface Rops
13/31 4098 45 ASP No/No
Airport map: 
Aerial View: 

SKYbrary Partners:

Safety knowledge contributed by: